Main page
METAR-TAF:

METAR-TAF

Airports :

Military air base

Tulln an der Donau, Austria

latitude: 48-19N, longitude: 016-07E, elevation: 175 m

METAR: missing

Time: 05:37 (03:37 UTC)

Forecast

The report was made 16 hours and 22 minutes ago, at 11:15 UTC
Forecast valid from 16 at 12 UTC to 16 at 21 UTC
Wind 3 kt from variable directions
Visibility 10 km or more
Few clouds at a height of 5000 ft
Temporary
from 16 at 12 UTC to 16 at 18 UTC
Wind 5 kt from the Northeast
Scattered clouds at a height of 6000 ft

TAF: LOXT 161115Z 1612/1621 VRB03KT 9999 FEW050 TEMPO 1612/1618 04005KT SCT060

Weather observations and forecasts of more than 4000 airports (METAR and TAF reports).

The available stations are represented by yellow and red dots on the map.

Hover mouse over dot to see the name of the station.

Then click to see weather observations and forecasts.

To change the map : click on the green buttons with a black cross to zoom in, on the green button with a dash to zoom out, or on the green arrows for adjacent maps.


METAR-TAF: